createdAt,value
2018-11-23T00:01:55.929Z,95975.29
2018-11-23T00:04:30.373Z,95972.11
2018-11-23T00:07:04.966Z,95973.97
2018-11-23T00:09:39.535Z,95972.59
2018-11-23T00:12:14.366Z,95971.31
2018-11-23T00:14:48.869Z,95981.35
2018-11-23T00:17:23.460Z,95982.97
2018-11-23T00:19:58.165Z,95985.89
2018-11-23T00:22:33.025Z,95983.67
2018-11-23T00:25:10.082Z,95978.79
2018-11-23T00:27:45.191Z,95978.78
2018-11-23T00:30:21.386Z,95962.45
2018-11-23T00:32:56.414Z,95978.42
2018-11-23T00:35:31.556Z,95977.39
2018-11-23T00:38:06.412Z,95977.73
2018-11-23T00:40:41.413Z,95979.86
2018-11-23T00:43:16.180Z,95982.06
2018-11-23T00:45:51.026Z,95988.24
2018-11-23T00:48:25.829Z,95988.36
2018-11-23T00:51:00.338Z,95986.85
2018-11-23T00:53:35.153Z,95982.64
2018-11-23T00:56:09.625Z,95984.75
2018-11-23T00:58:44.499Z,95994.74
2018-11-23T01:01:19.254Z,95999.39
2018-11-23T01:03:53.733Z,95993.34
2018-11-23T01:06:28.713Z,95998.70
2018-11-23T01:09:03.382Z,95999.98
2018-11-23T01:11:38.127Z,95989.27
2018-11-23T01:14:13.261Z,95993.23
2018-11-23T01:16:48.330Z,95989.86
2018-11-23T01:19:22.814Z,95980.99
2018-11-23T01:21:57.293Z,95987.06
2018-11-23T01:24:31.812Z,95980.65
2018-11-23T01:27:07.182Z,95986.13
2018-11-23T01:29:41.668Z,95979.51
2018-11-23T01:32:16.708Z,95972.86
2018-11-23T01:34:51.534Z,95961.20
2018-11-23T01:37:26.114Z,95968.66
2018-11-23T01:40:00.759Z,95965.87
2018-11-23T01:42:35.778Z,95959.82
2018-11-23T01:45:11.177Z,95966.23
2018-11-23T01:47:46.529Z,95967.50
2018-11-23T01:50:22.911Z,95964.58
2018-11-23T01:52:58.059Z,95964.02
2018-11-23T01:55:32.417Z,95970.54
2018-11-23T01:58:06.865Z,95962.72
2018-11-23T02:00:41.511Z,95967.51
2018-11-23T02:03:16.034Z,95960.75
2018-11-23T02:05:50.307Z,95967.73
2018-11-23T02:08:24.661Z,95967.04
2018-11-23T02:10:59.330Z,95966.68
2018-11-23T02:13:33.696Z,95971.81
2018-11-23T02:16:08.303Z,95963.52
2018-11-23T02:18:42.865Z,95968.30
2018-11-23T02:21:17.233Z,95967.13
2018-11-23T02:23:51.857Z,95969.34
2018-11-23T02:26:26.725Z,95976.34
2018-11-23T02:29:01.207Z,95980.06
2018-11-23T02:31:37.431Z,95979.86
2018-11-23T02:34:12.049Z,95980.77
2018-11-23T02:36:46.618Z,95983.68
2018-11-23T02:39:20.961Z,95982.19
2018-11-23T02:41:55.417Z,95985.09
2018-11-23T02:44:29.701Z,95978.92
2018-11-23T02:47:04.833Z,95989.52
2018-11-23T02:49:39.535Z,95977.52
2018-11-23T02:52:13.845Z,95972.38
2018-11-23T02:54:48.350Z,95978.78
2018-11-23T02:57:23.053Z,95981.48
2018-11-23T02:59:57.839Z,95975.77
2018-11-23T03:02:32.398Z,95962.61
2018-11-23T03:05:07.961Z,95970.28
2018-11-23T03:07:43.165Z,95965.77
2018-11-23T03:10:18.321Z,95967.50
2018-11-23T03:12:52.832Z,95976.92
2018-11-23T03:15:27.565Z,95976.09
2018-11-23T03:18:01.869Z,95987.73
2018-11-23T03:20:36.834Z,95991.59
2018-11-23T03:23:11.356Z,96001.84
2018-11-23T03:25:46.089Z,95990.56
2018-11-23T03:28:20.542Z,95994.87
2018-11-23T03:30:55.009Z,95998.02
2018-11-23T03:33:29.542Z,96000.45
2018-11-23T03:36:04.039Z,96006.63
2018-11-23T03:38:38.656Z,95995.70
2018-11-23T03:41:13.001Z,95999.86
2018-11-23T03:43:47.473Z,96011.16
2018-11-23T03:46:25.605Z,95999.26
2018-11-23T03:49:00.273Z,96004.41
2018-11-23T03:51:35.074Z,96006.96
2018-11-23T03:54:10.379Z,96005.70
2018-11-23T03:56:45.062Z,96000.11
2018-11-23T03:59:20.167Z,96002.67
2018-11-23T04:01:54.469Z,95998.13
2018-11-23T04:04:29.437Z,96001.27
2018-11-23T04:07:04.205Z,95993.58
2018-11-23T04:09:39.193Z,95999.05
2018-11-23T04:12:14.184Z,95991.48
2018-11-23T04:14:48.605Z,95988.23
2018-11-23T04:17:23.521Z,95988.59
2018-11-23T04:19:58.288Z,95986.83
2018-11-23T04:22:32.949Z,95981.12
2018-11-23T04:25:07.465Z,95979.83
2018-11-23T04:27:42.809Z,95987.75
2018-11-23T04:30:18.258Z,95987.42
2018-11-23T04:32:53.231Z,95992.87
2018-11-23T04:35:27.957Z,96002.19
2018-11-23T04:38:02.722Z,96003.27
2018-11-23T04:40:37.383Z,96001.38
2018-11-23T04:43:12.417Z,96005.31
2018-11-23T04:45:47.368Z,96007.98
2018-11-23T04:48:21.997Z,96010.44
2018-11-23T04:50:56.733Z,96017.88
2018-11-23T04:53:31.631Z,96008.77
2018-11-23T04:56:06.319Z,96024.25
2018-11-23T04:58:40.686Z,96018.47
2018-11-23T05:01:15.143Z,96022.11
2018-11-23T05:03:49.495Z,96033.28
2018-11-23T05:06:23.852Z,96023.27
2018-11-23T05:08:58.404Z,96025.97
2018-11-23T05:11:32.678Z,96021.20
2018-11-23T05:14:07.494Z,96015.84
2018-11-23T05:16:41.962Z,96018.88
2018-11-23T05:19:16.917Z,96020.27
2018-11-23T05:21:51.429Z,96027.36
2018-11-23T05:24:25.976Z,96021.20
2018-11-23T05:27:00.615Z,96010.00
2018-11-23T05:29:34.974Z,96009.19
2018-11-23T05:32:10.677Z,96008.63
2018-11-23T05:34:45.025Z,96013.52
2018-11-23T05:37:19.665Z,96002.45
2018-11-23T05:39:54.541Z,96017.34
2018-11-23T05:42:28.893Z,96014.56
2018-11-23T05:45:04.019Z,96018.03
2018-11-23T05:47:38.689Z,96017.80
2018-11-23T05:50:19.586Z,96018.50
2018-11-23T05:52:54.021Z,96019.25
2018-11-23T05:55:28.729Z,96020.25
2018-11-23T05:58:03.607Z,96021.92
2018-11-23T06:00:37.942Z,96016.41
2018-11-23T06:03:12.825Z,96008.89
2018-11-23T06:05:48.755Z,96016.52
2018-11-23T06:08:23.185Z,96008.13
2018-11-23T06:10:58.029Z,96007.64
2018-11-23T06:13:32.385Z,95999.40
2018-11-23T06:16:07.602Z,95989.87
2018-11-23T06:18:42.051Z,96000.00
2018-11-23T06:21:17.681Z,96000.80
2018-11-23T06:23:52.222Z,95995.90
2018-11-23T06:26:28.928Z,96005.01
2018-11-23T06:29:03.886Z,95995.67
2018-11-23T06:31:38.442Z,95999.87
2018-11-23T06:34:13.118Z,95997.86
2018-11-23T06:36:47.721Z,96001.23
2018-11-23T06:39:22.505Z,96005.16
2018-11-23T06:41:56.810Z,96013.42
2018-11-23T06:44:31.365Z,96009.47
2018-11-23T06:47:06.107Z,96008.08
2018-11-23T06:49:40.670Z,96010.62
2018-11-23T06:52:15.619Z,96008.96
2018-11-23T06:54:50.086Z,96008.73
2018-11-23T06:57:24.620Z,96013.73
2018-11-23T06:59:59.990Z,96008.19
2018-11-23T07:02:35.102Z,96005.78
2018-11-23T07:05:10.906Z,96000.68
2018-11-23T07:07:45.642Z,96004.75
2018-11-23T07:10:20.256Z,96009.32
2018-11-23T07:12:54.868Z,96018.29
2018-11-23T07:15:29.454Z,96018.41
2018-11-23T07:18:03.961Z,96024.05
2018-11-23T07:20:38.557Z,96033.13
2018-11-23T07:23:13.160Z,96039.53
2018-11-23T07:25:47.948Z,96034.30
2018-11-23T07:28:22.394Z,96026.53
2018-11-23T07:31:02.108Z,96026.55
2018-11-23T07:33:31.348Z,96029.59
2018-11-23T07:36:06.294Z,96018.28
2018-11-23T07:38:40.721Z,96023.64
2018-11-23T07:41:26.643Z,96027.44
2018-11-23T07:44:01.001Z,96029.33
2018-11-23T07:46:35.321Z,96033.95
2018-11-23T07:49:09.842Z,96028.28
2018-11-23T07:51:44.465Z,96033.08
2018-11-23T07:54:18.914Z,96033.28
2018-11-23T07:56:53.391Z,96039.72
2018-11-23T07:59:28.322Z,96020.86
2018-11-23T08:02:03.482Z,96028.33
2018-11-23T08:04:38.866Z,96020.39
2018-11-23T08:07:13.403Z,96027.36
2018-11-23T08:09:47.865Z,96023.41
2018-11-23T08:12:22.611Z,96026.44
2018-11-23T08:14:57.374Z,96021.92
2018-11-23T08:17:32.214Z,96015.63
2018-11-23T08:20:07.706Z,96006.52
2018-11-23T08:22:42.273Z,95999.25
2018-11-23T08:25:19.149Z,95989.18
2018-11-23T08:27:56.062Z,95978.92
2018-11-23T08:30:31.081Z,95978.63
2018-11-23T08:33:06.062Z,95986.70
2018-11-23T08:35:41.193Z,96000.31
2018-11-23T08:38:15.549Z,96003.30
2018-11-23T08:40:50.057Z,96004.48
2018-11-23T08:43:24.920Z,95998.05
2018-11-23T08:45:59.636Z,95995.84
2018-11-23T08:48:34.029Z,95999.58
2018-11-23T08:51:09.553Z,95995.42
2018-11-23T08:53:44.369Z,96001.20
2018-11-23T08:56:18.676Z,96001.62
2018-11-23T08:58:53.641Z,96001.12
2018-11-23T09:01:28.058Z,96000.18
2018-11-23T09:04:03.445Z,96003.28
2018-11-23T09:06:43.617Z,96003.62
2018-11-23T09:09:18.111Z,95989.55
2018-11-23T09:11:52.593Z,95989.59
2018-11-23T09:14:27.222Z,95970.14
2018-11-23T09:17:01.685Z,95971.26
2018-11-23T09:19:36.173Z,95979.74
2018-11-23T09:22:10.793Z,95987.23
2018-11-23T09:24:45.399Z,95995.36
2018-11-23T09:27:19.801Z,96001.48
2018-11-23T09:29:54.133Z,96005.16
2018-11-23T09:32:28.471Z,96010.59
2018-11-23T09:35:03.075Z,96009.02
2018-11-23T09:37:38.669Z,96002.30
2018-11-23T09:40:15.710Z,95992.16
2018-11-23T09:42:50.529Z,95992.80
2018-11-23T09:45:26.949Z,95989.80
2018-11-23T09:48:02.979Z,95985.26
2018-11-23T09:50:38.581Z,95981.89
2018-11-23T09:53:13.469Z,95977.37
2018-11-23T09:55:48.145Z,95974.60
2018-11-23T09:58:22.481Z,95973.45
2018-11-23T10:00:57.611Z,95968.17
2018-11-23T10:03:32.021Z,95965.06
2018-11-23T10:06:06.605Z,95970.02
2018-11-23T10:08:41.013Z,95961.74
2018-11-23T10:11:15.469Z,95954.95
2018-11-23T10:13:50.109Z,95948.90
2018-11-23T10:16:25.024Z,95948.38
2018-11-23T10:18:59.579Z,95934.27
2018-11-23T10:21:34.684Z,95930.75
2018-11-23T10:24:09.218Z,95924.20
2018-11-23T10:26:43.929Z,95923.25
2018-11-23T10:29:18.326Z,95919.84
2018-11-23T10:31:53.001Z,95920.16
2018-11-23T10:34:27.838Z,95918.58
2018-11-23T10:37:02.646Z,95910.92
2018-11-23T10:39:37.066Z,95907.31
2018-11-23T10:42:12.141Z,95889.41
2018-11-23T10:44:47.091Z,95892.94
2018-11-23T10:47:21.593Z,95897.47
2018-11-23T10:49:56.713Z,95889.52
2018-11-23T10:52:31.155Z,95881.78
2018-11-23T10:55:07.505Z,95881.45
2018-11-23T10:57:42.222Z,95884.83
2018-11-23T11:00:22.875Z,95888.97
2018-11-23T11:03:01.578Z,95878.65
2018-11-23T11:05:37.602Z,95881.86
2018-11-23T11:08:11.961Z,95875.48
2018-11-23T11:10:46.436Z,95873.52
2018-11-23T11:13:20.917Z,95868.22
2018-11-23T11:15:55.388Z,95864.09
2018-11-23T11:18:30.008Z,95864.41
2018-11-23T11:21:05.209Z,95870.97
2018-11-23T11:23:39.545Z,95872.55
2018-11-23T11:26:14.247Z,95863.12
2018-11-23T11:28:49.078Z,95864.02
2018-11-23T11:31:23.502Z,95854.25
2018-11-23T11:33:58.169Z,95855.92
2018-11-23T11:36:32.720Z,95853.04
2018-11-23T11:39:10.965Z,95841.61
2018-11-23T11:41:45.703Z,95842.96
2018-11-23T11:44:20.027Z,95836.16
2018-11-23T11:46:54.570Z,95847.53
2018-11-23T11:49:29.134Z,95844.69
2018-11-23T11:52:03.989Z,95845.89
2018-11-23T11:54:38.409Z,95842.61
2018-11-23T11:57:12.800Z,95836.12
2018-11-23T11:59:47.496Z,95830.73
2018-11-23T12:02:23.459Z,95827.91
2018-11-23T12:04:57.978Z,95822.45
2018-11-23T12:07:32.562Z,95816.27
2018-11-23T12:10:09.823Z,95807.00
2018-11-23T12:12:44.660Z,95799.63
2018-11-23T12:15:19.290Z,95803.64
2018-11-23T12:17:54.380Z,95802.55
2018-11-23T12:20:29.737Z,95795.13
2018-11-23T12:23:04.856Z,95791.71
2018-11-23T12:25:39.532Z,95786.94
2018-11-23T12:28:14.282Z,95783.65
2018-11-23T12:30:48.681Z,95778.91
2018-11-23T12:33:23.177Z,95783.89
2018-11-23T12:35:57.737Z,95768.24
2018-11-23T12:38:32.174Z,95756.36
2018-11-23T12:41:06.880Z,95751.92
2018-11-23T12:43:41.353Z,95755.09
2018-11-23T12:46:15.822Z,95750.97
2018-11-23T12:48:50.495Z,95745.31
2018-11-23T12:51:25.233Z,95745.55
2018-11-23T12:53:59.917Z,95741.22
2018-11-23T12:56:34.781Z,95733.97
2018-11-23T12:59:09.169Z,95734.52
2018-11-23T13:01:43.633Z,95724.64
2018-11-23T13:04:18.306Z,95722.69
2018-11-23T13:06:52.992Z,95722.06
2018-11-23T13:09:27.484Z,95716.91
2018-11-23T13:12:02.753Z,95713.66
2018-11-23T13:14:37.640Z,95716.77
2018-11-23T13:17:12.621Z,95712.58
2018-11-23T13:19:47.553Z,95707.46
2018-11-23T13:22:21.884Z,95711.91
2018-11-23T13:24:56.283Z,95711.18
2018-11-23T13:27:30.609Z,95708.31
2018-11-23T13:30:08.594Z,95716.14
2018-11-23T13:32:43.310Z,95711.48
2018-11-23T13:35:19.157Z,95713.06
2018-11-23T13:37:54.681Z,95721.28
2018-11-23T13:40:30.722Z,95718.94
2018-11-23T13:43:05.141Z,95718.68
2018-11-23T13:45:39.970Z,95715.13
2018-11-23T13:48:19.835Z,95705.88
2018-11-23T13:50:49.112Z,95703.31
2018-11-23T13:53:23.543Z,95700.27
2018-11-23T13:55:58.369Z,95700.88
2018-11-23T13:58:33.562Z,95698.39
2018-11-23T14:01:08.668Z,95692.08
2018-11-23T14:03:43.421Z,95681.22
2018-11-23T14:06:18.354Z,95687.23
2018-11-23T14:08:53.580Z,95678.10
2018-11-23T14:11:28.629Z,95683.36
2018-11-23T14:14:03.668Z,95685.80
2018-11-23T14:16:38.762Z,95681.46
2018-11-23T14:19:13.594Z,95683.31
2018-11-23T14:21:48.577Z,95679.63
2018-11-23T14:24:23.105Z,95670.31
2018-11-23T14:26:58.009Z,95668.67
2018-11-23T14:29:32.569Z,95670.56
2018-11-23T14:32:07.349Z,95668.81
2018-11-23T14:34:41.993Z,95662.53
2018-11-23T14:37:16.941Z,95655.62
2018-11-23T14:39:51.683Z,95658.46
2018-11-23T14:42:26.549Z,95653.68
2018-11-23T14:45:01.537Z,95654.33
2018-11-23T14:47:36.526Z,95653.34
2018-11-23T14:50:14.649Z,95658.13
2018-11-23T14:52:50.414Z,95651.23
2018-11-23T14:55:25.337Z,95654.08
2018-11-23T14:58:00.377Z,95650.08
2018-11-23T15:00:36.013Z,95653.73
2018-11-23T15:03:11.360Z,95650.75
2018-11-23T15:05:45.949Z,95654.81
2018-11-23T15:08:20.341Z,95646.28
2018-11-23T15:10:55.640Z,95642.89
2018-11-23T15:13:30.185Z,95647.88
2018-11-23T15:16:04.682Z,95647.54
2018-11-23T15:18:39.165Z,95644.25
2018-11-23T15:21:13.829Z,95648.73
2018-11-23T15:23:48.201Z,95641.84
2018-11-23T15:26:23.048Z,95641.56
2018-11-23T15:28:58.440Z,95645.47
2018-11-23T15:31:32.941Z,95645.09
2018-11-23T15:34:07.766Z,95647.86
2018-11-23T15:36:42.662Z,95638.92
2018-11-23T15:39:17.099Z,95637.72
2018-11-23T15:41:51.561Z,95626.94
2018-11-23T15:44:26.016Z,95624.59
2018-11-23T15:47:01.301Z,95618.03
2018-11-23T15:49:35.869Z,95616.13
2018-11-23T15:52:10.838Z,95620.18
2018-11-23T15:54:45.414Z,95621.96
2018-11-23T15:57:19.937Z,95618.22
2018-11-23T15:59:54.455Z,95623.78
2018-11-23T16:02:29.896Z,95619.84
2018-11-23T16:05:06.371Z,95619.70
2018-11-23T16:07:40.978Z,95615.84
2018-11-23T16:10:25.355Z,95612.80
2018-11-23T16:13:02.008Z,95609.75
2018-11-23T16:15:36.905Z,95608.22
2018-11-23T16:18:12.485Z,95616.94
2018-11-23T16:20:47.538Z,95607.27
2018-11-23T16:23:22.361Z,95609.42
2018-11-23T16:25:57.939Z,95601.04
2018-11-23T16:28:32.910Z,95601.20
2018-11-23T16:31:07.503Z,95598.55
2018-11-23T16:33:42.003Z,95598.95
2018-11-23T16:36:17.227Z,95599.76
2018-11-23T16:38:54.905Z,95600.42
2018-11-23T16:41:40.697Z,95593.80
2018-11-23T16:44:19.007Z,95594.67
2018-11-23T16:46:53.890Z,95590.14
2018-11-23T16:49:28.188Z,95593.00
2018-11-23T16:52:03.145Z,95598.55
2018-11-23T16:54:38.163Z,95588.09
2018-11-23T16:57:12.724Z,95588.77
2018-11-23T16:59:47.548Z,95584.02
2018-11-23T17:02:22.356Z,95578.60
2018-11-23T17:04:57.222Z,95575.30
2018-11-23T17:07:31.664Z,95574.08
2018-11-23T17:10:13.654Z,95565.16
2018-11-23T17:12:48.700Z,95572.53
2018-11-23T17:15:24.851Z,95575.23
2018-11-23T17:17:59.392Z,95573.54
2018-11-23T17:20:34.650Z,95569.83
2018-11-23T17:23:11.861Z,95565.20
2018-11-23T17:25:46.481Z,95562.16
2018-11-23T17:28:21.469Z,95559.97
2018-11-23T17:30:56.081Z,95549.28
2018-11-23T17:33:30.641Z,95542.70
2018-11-23T17:36:05.372Z,95538.12
2018-11-23T17:38:47.294Z,95539.67
2018-11-23T17:41:14.871Z,95543.93
2018-11-23T17:43:50.099Z,95541.84
2018-11-23T17:46:24.693Z,95538.12
2018-11-23T17:48:59.536Z,95529.69
2018-11-23T17:51:33.832Z,95529.80
2018-11-23T17:54:08.280Z,95532.11
2018-11-23T17:56:43.453Z,95520.88
2018-11-23T17:59:17.765Z,95513.19
2018-11-23T18:01:52.514Z,95508.67
2018-11-23T18:04:27.153Z,95508.52
2018-11-23T18:07:02.079Z,95504.08
2018-11-23T18:09:36.547Z,95510.30
2018-11-23T18:12:11.165Z,95509.02
2018-11-23T18:14:45.984Z,95501.14
2018-11-23T18:17:20.343Z,95504.20
2018-11-23T18:19:54.769Z,95496.71
2018-11-23T18:22:29.290Z,95488.73
2018-11-23T18:25:04.445Z,95487.10
2018-11-23T18:27:38.978Z,95489.28
2018-11-23T18:30:14.471Z,95487.18
2018-11-23T18:32:49.062Z,95484.62
2018-11-23T18:35:23.529Z,95487.84
2018-11-23T18:37:58.276Z,95487.52
2018-11-23T18:40:37.575Z,95481.04
2018-11-23T18:43:08.473Z,95469.77
2018-11-23T18:45:42.918Z,95463.05
2018-11-23T18:48:17.222Z,95449.47
2018-11-23T18:50:51.494Z,95436.66
2018-11-23T18:53:26.149Z,95420.45
2018-11-23T18:56:00.934Z,95411.66
2018-11-23T18:58:35.584Z,95402.73
2018-11-23T19:01:10.353Z,95401.53
2018-11-23T19:03:45.431Z,95406.08
2018-11-23T19:06:20.094Z,95402.00
2018-11-23T19:08:54.851Z,95400.14
2018-11-23T19:11:29.845Z,95396.78
2018-11-23T19:14:07.179Z,95394.44
2018-11-23T19:16:41.686Z,95384.95
2018-11-23T19:19:16.385Z,95382.91
2018-11-23T19:21:51.444Z,95380.99
2018-11-23T19:24:29.055Z,95383.56
2018-11-23T19:27:03.791Z,95382.18
2018-11-23T19:29:38.626Z,95369.09
2018-11-23T19:32:14.449Z,95357.72
2018-11-23T19:34:50.421Z,95354.08
2018-11-23T19:37:25.149Z,95359.97
2018-11-23T19:39:59.796Z,95336.41
2018-11-23T19:42:37.112Z,95343.56
2018-11-23T19:45:13.097Z,95348.27
2018-11-23T19:47:48.317Z,95341.69
2018-11-23T19:50:23.205Z,95339.16
2018-11-23T19:52:57.628Z,95339.92
2018-11-23T19:55:33.763Z,95340.98
2018-11-23T19:58:08.277Z,95341.73
2018-11-23T20:00:43.177Z,95341.33
2018-11-23T20:03:18.245Z,95335.23
2018-11-23T20:05:53.193Z,95324.83
2018-11-23T20:08:27.682Z,95324.06
2018-11-23T20:11:02.218Z,95324.16
2018-11-23T20:13:37.207Z,95309.68
2018-11-23T20:16:12.101Z,95303.75
2018-11-23T20:18:46.660Z,95303.83
2018-11-23T20:21:21.199Z,95309.06
2018-11-23T20:23:55.757Z,95303.02
2018-11-23T20:26:30.501Z,95310.09
2018-11-23T20:29:05.546Z,95305.87
2018-11-23T20:31:40.795Z,95312.71
2018-11-23T20:34:15.350Z,95309.30
2018-11-23T20:36:50.281Z,95309.07
2018-11-23T20:39:25.550Z,95301.88
2018-11-23T20:42:00.232Z,95306.91
2018-11-23T20:44:35.246Z,95299.27
2018-11-23T20:47:10.557Z,95299.20
2018-11-23T20:49:46.061Z,95304.16
2018-11-23T20:55:03.132Z,95287.23
2018-11-23T20:57:38.172Z,95279.93
2018-11-23T21:00:14.119Z,95266.28
2018-11-23T21:02:49.949Z,95258.42
2018-11-23T21:05:24.749Z,95259.01
2018-11-23T21:07:59.325Z,95262.83
2018-11-23T21:10:34.433Z,95257.84
2018-11-23T21:13:09.465Z,95250.83
2018-11-23T21:15:44.662Z,95255.19
2018-11-23T21:18:19.428Z,95251.63
2018-11-23T21:20:54.030Z,95254.50
2018-11-23T21:23:28.830Z,95241.66
2018-11-23T21:26:03.358Z,95232.70
2018-11-23T21:28:37.842Z,95228.96
2018-11-23T21:31:12.161Z,95229.92
2018-11-23T21:33:46.702Z,95227.02
2018-11-23T21:36:21.480Z,95226.05
2018-11-23T21:38:55.965Z,95221.13
2018-11-23T21:41:30.926Z,95227.48
2018-11-23T21:44:05.659Z,95240.41
2018-11-23T21:46:40.024Z,95217.61
2018-11-23T21:49:14.477Z,95219.95
2018-11-23T21:51:49.332Z,95235.60
2018-11-23T21:54:23.640Z,95226.05
2018-11-23T21:56:58.154Z,95217.42
2018-11-23T21:59:32.720Z,95212.38
2018-11-23T22:02:07.909Z,95232.55
2018-11-23T22:04:42.458Z,95211.74
2018-11-23T22:07:17.009Z,95201.98
2018-11-23T22:09:51.561Z,95200.63
2018-11-23T22:12:26.618Z,95188.05
2018-11-23T22:15:01.141Z,95180.38
2018-11-23T22:17:36.023Z,95158.72
2018-11-23T22:20:12.787Z,95183.01
2018-11-23T22:22:47.689Z,95189.28
2018-11-23T22:25:23.114Z,95204.07
2018-11-23T22:27:57.423Z,95198.34
2018-11-23T22:30:32.549Z,95191.23
2018-11-23T22:33:07.540Z,95180.95
2018-11-23T22:35:48.105Z,95172.41
2018-11-23T22:38:16.360Z,95188.16
2018-11-23T22:40:51.577Z,95168.25
2018-11-23T22:43:26.067Z,95166.80
2018-11-23T22:46:00.815Z,95164.25
2018-11-23T22:48:35.364Z,95153.62
2018-11-23T22:51:10.163Z,95155.55
2018-11-23T22:53:44.831Z,95151.16
2018-11-23T22:56:19.720Z,95169.63
2018-11-23T22:58:55.533Z,95165.51
2018-11-23T23:01:28.705Z,95164.73
2018-11-23T23:04:03.505Z,95158.01
2018-11-23T23:06:37.826Z,95156.91
2018-11-23T23:09:12.447Z,95164.91
2018-11-23T23:11:46.973Z,95171.84
2018-11-23T23:14:21.473Z,95165.36
2018-11-23T23:16:56.169Z,95160.87
2018-11-23T23:19:31.078Z,95165.14
2018-11-23T23:22:05.887Z,95159.47
2018-11-23T23:24:40.470Z,95152.52
2018-11-23T23:27:15.247Z,95135.28
2018-11-23T23:29:50.112Z,95135.94
2018-11-23T23:32:24.433Z,95133.89
2018-11-23T23:34:58.840Z,95133.88
2018-11-23T23:37:33.310Z,95127.80
2018-11-23T23:40:17.296Z,95123.79
2018-11-23T23:42:51.604Z,95131.37
2018-11-23T23:45:26.543Z,95120.16
2018-11-23T23:48:01.678Z,95114.57
2018-11-23T23:50:36.158Z,95117.19
2018-11-23T23:53:10.482Z,95121.67
2018-11-23T23:55:45.241Z,95127.47
2018-11-23T23:58:19.923Z,95117.29
